sensor_id;sensor_type;location;lat;lon;timestamp;pressure;altitude;pressure_sealevel;temperature;humidity
31088;BME280;17745;55.914;37.554;2023-02-28T00:17:13;99537.00;;;-5.58;59.21
31088;BME280;17745;55.914;37.554;2023-02-28T00:19:53;99534.28;;;-5.66;59.27
31088;BME280;17745;55.914;37.554;2023-02-28T00:22:27;99532.81;;;-5.69;59.22
31088;BME280;17745;55.914;37.554;2023-02-28T00:25:03;99526.81;;;-5.69;59.17
31088;BME280;17745;55.914;37.554;2023-02-28T00:27:43;99529.56;;;-5.71;59.14
31088;BME280;17745;55.914;37.554;2023-02-28T00:30:28;99534.97;;;-5.74;59.22
31088;BME280;17745;55.914;37.554;2023-02-28T00:33:40;99523.19;;;-5.77;59.30
31088;BME280;17745;55.914;37.554;2023-02-28T00:36:35;99526.72;;;-5.78;59.31
31088;BME280;17745;55.914;37.554;2023-02-28T00:39:44;99516.41;;;-5.78;59.26
31088;BME280;17745;55.914;37.554;2023-02-28T00:42:25;99517.34;;;-5.79;59.31
31088;BME280;17745;55.914;37.554;2023-02-28T00:44:56;99514.09;;;-5.81;59.26
31088;BME280;17745;55.914;37.554;2023-02-28T00:47:55;99511.53;;;-5.81;59.34
31088;BME280;17745;55.914;37.554;2023-02-28T01:01:37;99481.50;;;-5.82;59.29
31088;BME280;17745;55.914;37.554;2023-02-28T01:04:25;99475.28;;;-5.89;59.48
31088;BME280;17745;55.914;37.554;2023-02-28T01:07:03;99466.59;;;-5.88;59.44
31088;BME280;17745;55.914;37.554;2023-02-28T01:10:04;99455.47;;;-5.89;59.53
31088;BME280;17745;55.914;37.554;2023-02-28T01:13:04;99460.63;;;-5.89;59.56
31088;BME280;17745;55.914;37.554;2023-02-28T01:15:56;99443.78;;;-5.93;59.55
31088;BME280;17745;55.914;37.554;2023-02-28T01:19:07;99442.31;;;-5.95;59.62
31088;BME280;17745;55.914;37.554;2023-02-28T01:22:08;99435.94;;;-5.91;59.52
31088;BME280;17745;55.914;37.554;2023-02-28T01:24:44;99431.59;;;-5.91;59.53
31088;BME280;17745;55.914;37.554;2023-02-28T01:27:18;99428.31;;;-5.93;59.61
31088;BME280;17745;55.914;37.554;2023-02-28T01:30:01;99410.44;;;-5.94;59.58
31088;BME280;17745;55.914;37.554;2023-02-28T01:32:57;99412.72;;;-5.91;59.54
31088;BME280;17745;55.914;37.554;2023-02-28T01:39:07;99390.06;;;-5.87;59.43
31088;BME280;17745;55.914;37.554;2023-02-28T01:42:23;99397.63;;;-5.86;59.43
31088;BME280;17745;55.914;37.554;2023-02-28T01:48:31;99393.44;;;-5.87;59.57
31088;BME280;17745;55.914;37.554;2023-02-28T01:51:10;99377.47;;;-5.91;59.60
31088;BME280;17745;55.914;37.554;2023-02-28T01:53:45;99375.97;;;-5.93;59.73
31088;BME280;17745;55.914;37.554;2023-02-28T01:56:33;99374.19;;;-5.93;59.72
31088;BME280;17745;55.914;37.554;2023-02-28T01:59:12;99364.56;;;-5.91;59.76
31088;BME280;17745;55.914;37.554;2023-02-28T02:01:52;99366.69;;;-5.86;59.66
31088;BME280;17745;55.914;37.554;2023-02-28T02:04:35;99370.22;;;-5.87;59.72
31088;BME280;17745;55.914;37.554;2023-02-28T02:07:10;99364.94;;;-5.85;59.74
31088;BME280;17745;55.914;37.554;2023-02-28T02:10:05;99366.69;;;-5.86;59.77
31088;BME280;17745;55.914;37.554;2023-02-28T02:13:10;99356.38;;;-5.86;59.78
31088;BME280;17745;55.914;37.554;2023-02-28T02:16:25;99346.59;;;-5.82;59.79
31088;BME280;17745;55.914;37.554;2023-02-28T02:19:36;99343.91;;;-5.81;59.71
31088;BME280;17745;55.914;37.554;2023-02-28T02:22:41;99346.19;;;-5.78;59.68
31088;BME280;17745;55.914;37.554;2023-02-28T02:25:43;99340.06;;;-5.77;59.75
31088;BME280;17745;55.914;37.554;2023-02-28T02:28:36;99328.81;;;-5.76;59.74
31088;BME280;17745;55.914;37.554;2023-02-28T02:31:33;99330.44;;;-5.75;59.72
31088;BME280;17745;55.914;37.554;2023-02-28T02:34:36;99323.34;;;-5.72;59.78
31088;BME280;17745;55.914;37.554;2023-02-28T02:37:14;99316.41;;;-5.72;59.87
31088;BME280;17745;55.914;37.554;2023-02-28T02:39:53;99319.41;;;-5.67;59.71
31088;BME280;17745;55.914;37.554;2023-02-28T02:42:37;99295.22;;;-5.66;59.64
31088;BME280;17745;55.914;37.554;2023-02-28T02:45:29;99308.91;;;-5.65;59.70
31088;BME280;17745;55.914;37.554;2023-02-28T02:48:26;99298.88;;;-5.68;59.75
31088;BME280;17745;55.914;37.554;2023-02-28T02:51:12;99295.22;;;-5.66;59.68
31088;BME280;17745;55.914;37.554;2023-02-28T02:53:49;99289.41;;;-5.68;59.85
31088;BME280;17745;55.914;37.554;2023-02-28T02:56:26;99284.37;;;-5.69;59.84
31088;BME280;17745;55.914;37.554;2023-02-28T02:59:06;99269.72;;;-5.69;59.87
31088;BME280;17745;55.914;37.554;2023-02-28T03:01:44;99262.66;;;-5.67;59.82
31088;BME280;17745;55.914;37.554;2023-02-28T03:04:22;99265.06;;;-5.65;59.81
31088;BME280;17745;55.914;37.554;2023-02-28T03:07:24;99277.41;;;-5.59;59.73
31088;BME280;17745;55.914;37.554;2023-02-28T03:10:31;99270.47;;;-5.58;59.74
31088;BME280;17745;55.914;37.554;2023-02-28T03:13:17;99251.75;;;-5.61;59.79
31088;BME280;17745;55.914;37.554;2023-02-28T03:16:07;99245.25;;;-5.65;59.91
31088;BME280;17745;55.914;37.554;2023-02-28T03:18:47;99236.56;;;-5.64;59.87
31088;BME280;17745;55.914;37.554;2023-02-28T03:21:30;99232.88;;;-5.61;59.83
31088;BME280;17745;55.914;37.554;2023-02-28T03:24:11;99235.59;;;-5.63;59.91
31088;BME280;17745;55.914;37.554;2023-02-28T03:26:55;99231.09;;;-5.61;60.00
31088;BME280;17745;55.914;37.554;2023-02-28T03:29:36;99236.63;;;-5.55;59.92
31088;BME280;17745;55.914;37.554;2023-02-28T03:32:20;99215.84;;;-5.54;59.87
31088;BME280;17745;55.914;37.554;2023-02-28T03:35:00;99232.78;;;-5.51;59.76
31088;BME280;17745;55.914;37.554;2023-02-28T03:37:45;99231.03;;;-5.51;59.73
31088;BME280;17745;55.914;37.554;2023-02-28T03:40:26;99215.84;;;-5.54;59.75
31088;BME280;17745;55.914;37.554;2023-02-28T03:43:22;99221.31;;;-5.57;59.82
31088;BME280;17745;55.914;37.554;2023-02-28T03:46:07;99202.94;;;-5.54;59.72
31088;BME280;17745;55.914;37.554;2023-02-28T03:48:45;99202.78;;;-5.52;59.69
31088;BME280;17745;55.914;37.554;2023-02-28T03:51:35;99186.81;;;-5.56;59.73
31088;BME280;17745;55.914;37.554;2023-02-28T03:54:27;99195.88;;;-5.52;59.63
31088;BME280;17745;55.914;37.554;2023-02-28T03:57:40;99195.22;;;-5.54;59.61
31088;BME280;17745;55.914;37.554;2023-02-28T04:00:21;99182.16;;;-5.52;59.58
31088;BME280;17745;55.914;37.554;2023-02-28T04:02:55;99177.81;;;-5.52;59.56
31088;BME280;17745;55.914;37.554;2023-02-28T04:05:31;99188.13;;;-5.52;59.50
31088;BME280;17745;55.914;37.554;2023-02-28T04:08:11;99182.97;;;-5.52;59.53
31088;BME280;17745;55.914;37.554;2023-02-28T04:11:21;99177.50;;;-5.49;59.48
31088;BME280;17745;55.914;37.554;2023-02-28T04:32:39;99119.75;;;-5.56;59.30
31088;BME280;17745;55.914;37.554;2023-02-28T04:35:19;99122.97;;;-5.54;59.24
31088;BME280;17745;55.914;37.554;2023-02-28T04:38:19;99116.03;;;-5.53;59.24
31088;BME280;17745;55.914;37.554;2023-02-28T04:41:25;99107.84;;;-5.49;59.16
31088;BME280;17745;55.914;37.554;2023-02-28T04:44:17;99112.06;;;-5.48;59.18
31088;BME280;17745;55.914;37.554;2023-02-28T04:46:53;99090.31;;;-5.45;58.88
31088;BME280;17745;55.914;37.554;2023-02-28T04:49:34;99088.53;;;-5.45;58.94
31088;BME280;17745;55.914;37.554;2023-02-28T04:52:51;99099.50;;;-5.42;59.00
31088;BME280;17745;55.914;37.554;2023-02-28T04:55:24;99081.06;;;-5.29;58.74
31088;BME280;17745;55.914;37.554;2023-02-28T04:57:58;99072.34;;;-5.28;58.55
31088;BME280;17745;55.914;37.554;2023-02-28T05:00:52;99077.22;;;-5.25;58.58
31088;BME280;17745;55.914;37.554;2023-02-28T05:03:33;99066.91;;;-5.17;58.49
31088;BME280;17745;55.914;37.554;2023-02-28T05:16:44;99054.88;;;-5.00;58.30
31088;BME280;17745;55.914;37.554;2023-02-28T05:19:26;99044.16;;;-4.87;57.92
31088;BME280;17745;55.914;37.554;2023-02-28T05:22:02;99038.00;;;-4.86;57.90
31088;BME280;17745;55.914;37.554;2023-02-28T05:24:32;99011.69;;;-4.81;57.85
31088;BME280;17745;55.914;37.554;2023-02-28T05:27:17;99027.56;;;-4.76;57.73
31088;BME280;17745;55.914;37.554;2023-02-28T05:30:06;99028.22;;;-4.66;57.57
31088;BME280;17745;55.914;37.554;2023-02-28T05:32:54;99008.50;;;-4.67;57.31
31088;BME280;17745;55.914;37.554;2023-02-28T05:35:25;99021.75;;;-4.62;57.50
31088;BME280;17745;55.914;37.554;2023-02-28T05:38:09;99019.03;;;-4.60;57.32
31088;BME280;17745;55.914;37.554;2023-02-28T05:44:43;98989.50;;;-4.57;56.77
31088;BME280;17745;55.914;37.554;2023-02-28T05:47:31;98988.66;;;-4.50;57.08
31088;BME280;17745;55.914;37.554;2023-02-28T05:50:17;98972.84;;;-4.30;56.86
31088;BME280;17745;55.914;37.554;2023-02-28T05:52:51;98961.38;;;-4.19;56.72
31088;BME280;17745;55.914;37.554;2023-02-28T05:55:32;98951.38;;;-4.14;56.34
31088;BME280;17745;55.914;37.554;2023-02-28T05:58:17;98942.00;;;-4.07;56.37
31088;BME280;17745;55.914;37.554;2023-02-28T06:00:48;98920.81;;;-4.02;55.93
31088;BME280;17745;55.914;37.554;2023-02-28T06:03:30;98921.63;;;-4.10;55.68
31088;BME280;17745;55.914;37.554;2023-02-28T06:06:12;98929.72;;;-4.13;55.86
31088;BME280;17745;55.914;37.554;2023-02-28T06:08:43;98922.91;;;-4.06;55.87
31088;BME280;17745;55.914;37.554;2023-02-28T06:11:13;98909.84;;;-4.04;55.27
31088;BME280;17745;55.914;37.554;2023-02-28T06:13:52;98926.44;;;-3.98;55.37
31088;BME280;17745;55.914;37.554;2023-02-28T06:16:45;98905.91;;;-3.92;55.21
31088;BME280;17745;55.914;37.554;2023-02-28T06:26:23;98893.63;;;-3.41;54.87
31088;BME280;17745;55.914;37.554;2023-02-28T06:28:58;98899.06;;;-3.28;54.39
31088;BME280;17745;55.914;37.554;2023-02-28T06:31:44;98904.44;;;-3.06;54.09
31088;BME280;17745;55.914;37.554;2023-02-28T06:34:14;98884.31;;;-2.96;53.44
31088;BME280;17745;55.914;37.554;2023-02-28T06:36:43;98858.09;;;-3.01;53.71
31088;BME280;17745;55.914;37.554;2023-02-28T06:39:11;98861.69;;;-3.02;53.62
31088;BME280;17745;55.914;37.554;2023-02-28T06:41:48;98860.69;;;-3.01;53.49
31088;BME280;17745;55.914;37.554;2023-02-28T06:44:29;98840.31;;;-3.04;53.40
31088;BME280;17745;55.914;37.554;2023-02-28T06:47:09;98849.19;;;-2.98;53.43
31088;BME280;17745;55.914;37.554;2023-02-28T06:49:39;98836.38;;;-2.92;53.37
31088;BME280;17745;55.914;37.554;2023-02-28T06:53:15;98835.25;;;-2.74;52.93
31088;BME280;17745;55.914;37.554;2023-02-28T06:55:42;98805.94;;;-2.75;53.01
31088;BME280;17745;55.914;37.554;2023-02-28T06:58:21;98816.31;;;-2.60;53.24
31088;BME280;17745;55.914;37.554;2023-02-28T07:00:58;98810.47;;;-2.53;52.95
31088;BME280;17745;55.914;37.554;2023-02-28T07:03:35;98797.41;;;-2.45;52.29
31088;BME280;17745;55.914;37.554;2023-02-28T07:06:47;98792.06;;;-2.43;52.61
31088;BME280;17745;55.914;37.554;2023-02-28T07:27:02;98763.91;;;-1.80;52.38
31088;BME280;17745;55.914;37.554;2023-02-28T07:29:31;98761.91;;;-1.63;52.42
31088;BME280;17745;55.914;37.554;2023-02-28T07:32:06;98774.31;;;-1.58;52.19
31088;BME280;17745;55.914;37.554;2023-02-28T07:34:36;98777.28;;;-1.61;52.23
31088;BME280;17745;55.914;37.554;2023-02-28T07:37:08;98757.75;;;-1.57;52.52
31088;BME280;17745;55.914;37.554;2023-02-28T07:39:36;98748.94;;;-1.63;52.16
31088;BME280;17745;55.914;37.554;2023-02-28T07:49:37;98757.91;;;-1.22;52.49
31088;BME280;17745;55.914;37.554;2023-02-28T07:52:13;98757.63;;;-1.05;51.86
31088;BME280;17745;55.914;37.554;2023-02-28T07:54:46;98749.34;;;-1.16;52.14
31088;BME280;17745;55.914;37.554;2023-02-28T07:57:42;98727.94;;;-1.18;52.12
31088;BME280;17745;55.914;37.554;2023-02-28T08:00:13;98740.16;;;-1.18;52.31
31088;BME280;17745;55.914;37.554;2023-02-28T08:02:50;98722.19;;;-1.13;52.22
31088;BME280;17745;55.914;37.554;2023-02-28T08:05:42;98723.91;;;-0.98;51.98
31088;BME280;17745;55.914;37.554;2023-02-28T08:08:29;98700.84;;;-1.08;52.15
31088;BME280;17745;55.914;37.554;2023-02-28T08:11:18;98701.09;;;-1.03;52.03
31088;BME280;17745;55.914;37.554;2023-02-28T08:13:54;98702.47;;;-1.07;52.37
31088;BME280;17745;55.914;37.554;2023-02-28T08:16:28;98695.94;;;-0.96;52.31
31088;BME280;17745;55.914;37.554;2023-02-28T08:19:14;98705.63;;;-0.83;52.07
31088;BME280;17745;55.914;37.554;2023-02-28T08:25:26;98726.28;;;-0.40;51.73
31088;BME280;17745;55.914;37.554;2023-02-28T08:28:01;98744.66;;;-0.48;51.69
31088;BME280;17745;55.914;37.554;2023-02-28T08:30:44;98730.56;;;-0.61;51.89
31088;BME280;17745;55.914;37.554;2023-02-28T08:33:33;98741.34;;;-0.64;52.12
31088;BME280;17745;55.914;37.554;2023-02-28T08:36:49;98737.47;;;-0.75;52.28
31088;BME280;17745;55.914;37.554;2023-02-28T08:39:58;98749.19;;;-0.85;52.38
31088;BME280;17745;55.914;37.554;2023-02-28T08:57:42;98719.94;;;-0.66;52.39
31088;BME280;17745;55.914;37.554;2023-02-28T09:38:38;98644.06;;;-0.34;52.78
31088;BME280;17745;55.914;37.554;2023-02-28T16:23:31;98242.81;;;1.56;60.38
31088;BME280;17745;55.914;37.554;2023-02-28T16:33:56;98222.91;;;1.62;60.43
31088;BME280;17745;55.914;37.554;2023-02-28T16:48:18;98232.47;;;1.50;60.89
31088;BME280;17745;55.914;37.554;2023-02-28T16:50:53;98220.81;;;1.52;60.82
31088;BME280;17745;55.914;37.554;2023-02-28T16:53:33;98222.19;;;1.55;60.82
31088;BME280;17745;55.914;37.554;2023-02-28T16:56:17;98211.16;;;1.53;60.74
31088;BME280;17745;55.914;37.554;2023-02-28T16:59:48;98233.28;;;1.50;60.93
31088;BME280;17745;55.914;37.554;2023-02-28T17:03:15;98223.63;;;1.51;60.97
31088;BME280;17745;55.914;37.554;2023-02-28T17:05:56;98219.28;;;1.45;61.02
31088;BME280;17745;55.914;37.554;2023-02-28T17:08:35;98230.16;;;1.41;61.28
31088;BME280;17745;55.914;37.554;2023-02-28T19:05:12;98307.03;;;0.04;53.29
31088;BME280;17745;55.914;37.554;2023-02-28T19:07:51;98302.78;;;-0.70;53.89
31088;BME280;17745;55.914;37.554;2023-02-28T20:29:43;98302.31;;;-2.67;51.05
31088;BME280;17745;55.914;37.554;2023-02-28T20:32:14;98292.47;;;-2.50;50.22
31088;BME280;17745;55.914;37.554;2023-02-28T20:34:46;98293.41;;;-2.58;50.21
31088;BME280;17745;55.914;37.554;2023-02-28T20:37:30;98267.19;;;-3.05;50.10
31088;BME280;17745;55.914;37.554;2023-02-28T20:40:00;98278.81;;;-3.37;50.33
31088;BME280;17745;55.914;37.554;2023-02-28T20:42:37;98301.87;;;-3.21;49.96
31088;BME280;17745;55.914;37.554;2023-02-28T20:48:43;98292.72;;;-3.60;50.03
31088;BME280;17745;55.914;37.554;2023-02-28T20:51:25;98298.00;;;-3.32;49.61
31088;BME280;17745;55.914;37.554;2023-02-28T20:54:23;98306.81;;;-3.48;49.79
31088;BME280;17745;55.914;37.554;2023-02-28T20:57:38;98294.66;;;-2.53;47.74
31088;BME280;17745;55.914;37.554;2023-02-28T21:00:46;98292.75;;;-2.66;47.68
31088;BME280;17745;55.914;37.554;2023-02-28T21:03:21;98298.25;;;-2.54;47.70
